YMA7582 RJOB-RKPC
Flight info
| Callsign | YMA7582 |
|---|---|
| Flight time | 1h 7m |
| Altitude | 28000 |
| Route | WASYU V28 MARCO Y284 KATTA V28 DGC A595 TAMNA TAMNA2M |
| Aircraft | B738/M-SDE2E3FGHIRWXY/LB1 |
Departure
| Time | 2026-04-30 09:29 |
|---|---|
| Airport | Okayama Momotaro Airport (RJOB) |
Arrival
| Time | 2026-04-30 10:36 |
|---|---|
| Airport | Jeju International Airport (RKPC) |
| Time | Latitude | Longitude | Altitude | Speed | Heading |
|---|---|---|---|---|---|
| 2026-04-30 09:05 | 34.75905 | 133.85263 | 809 ft | 0 kts | 329° |
| 2026-04-30 09:21 | 34.75902 | 133.85266 | 808 ft | 2 kts | 329° |
| 2026-04-30 09:21 | 34.75890 | 133.85275 | 808 ft | 2 kts | 329° |
| 2026-04-30 09:21 | 34.75876 | 133.85284 | 807 ft | 2 kts | 331° |
| 2026-04-30 09:21 | 34.75862 | 133.85288 | 807 ft | 2 kts | 8° |
| 2026-04-30 09:22 | 34.75847 | 133.85281 | 806 ft | 2 kts | 38° |
| 2026-04-30 09:22 | 34.75841 | 133.85274 | 806 ft | 0 kts | 56° |
| 2026-04-30 09:22 | 34.75837 | 133.85266 | 806 ft | 0 kts | 59° |
| 2026-04-30 09:24 | 34.75841 | 133.85278 | 806 ft | 5 kts | 78° |
| 2026-04-30 09:25 | 34.75822 | 133.85319 | 805 ft | 7 kts | 142° |
| 2026-04-30 09:25 | 34.75764 | 133.85290 | 801 ft | 13 kts | 233° |
| 2026-04-30 09:25 | 34.75705 | 133.85176 | 800 ft | 18 kts | 239° |
| 2026-04-30 09:25 | 34.75634 | 133.85031 | 800 ft | 20 kts | 239° |
| 2026-04-30 09:26 | 34.75563 | 133.84889 | 800 ft | 19 kts | 240° |
| 2026-04-30 09:26 | 34.75491 | 133.84741 | 801 ft | 21 kts | 239° |
| 2026-04-30 09:26 | 34.75414 | 133.84586 | 804 ft | 20 kts | 239° |
| 2026-04-30 09:26 | 34.75346 | 133.84444 | 805 ft | 18 kts | 239° |
| 2026-04-30 09:27 | 34.75279 | 133.84309 | 805 ft | 18 kts | 238° |
| 2026-04-30 09:27 | 34.75208 | 133.84170 | 800 ft | 20 kts | 238° |
| 2026-04-30 09:27 | 34.75137 | 133.84074 | 795 ft | 12 kts | 189° |
| 2026-04-30 09:27 | 34.75064 | 133.84108 | 796 ft | 10 kts | 148° |
| 2026-04-30 09:28 | 34.75024 | 133.84163 | 799 ft | 8 kts | 86° |
| 2026-04-30 09:28 | 34.75063 | 133.84258 | 802 ft | 23 kts | 59° |
| 2026-04-30 09:28 | 34.75266 | 133.84674 | 802 ft | 91 kts | 59° |
| 2026-04-30 09:28 | 34.75701 | 133.85559 | 788 ft | 148 kts | 59° |
| 2026-04-30 09:29 | 34.76263 | 133.86757 | 1121 ft | 167 kts | 62° |
| 2026-04-30 09:29 | 34.76807 | 133.87917 | 1923 ft | 158 kts | 69° |
| 2026-04-30 09:29 | 34.76878 | 133.89249 | 2378 ft | 165 kts | 112° |
| 2026-04-30 09:29 | 34.76165 | 133.90315 | 2799 ft | 172 kts | 143° |
| 2026-04-30 09:30 | 34.75040 | 133.90880 | 3260 ft | 181 kts | 164° |
| 2026-04-30 09:30 | 34.73743 | 133.90767 | 3665 ft | 200 kts | 197° |
| 2026-04-30 09:30 | 34.72654 | 133.89604 | 4053 ft | 222 kts | 229° |
| 2026-04-30 09:30 | 34.71830 | 133.87944 | 4393 ft | 238 kts | 231° |
| 2026-04-30 09:31 | 34.70849 | 133.86235 | 4684 ft | 253 kts | 225° |
| 2026-04-30 09:31 | 34.69732 | 133.84543 | 5154 ft | 261 kts | 224° |
| 2026-04-30 09:31 | 34.68573 | 133.82817 | 5646 ft | 270 kts | 224° |
| 2026-04-30 09:31 | 34.67395 | 133.81024 | 6305 ft | 272 kts | 225° |
| 2026-04-30 09:32 | 34.66245 | 133.79240 | 7026 ft | 271 kts | 226° |
| 2026-04-30 09:32 | 34.65083 | 133.77437 | 7717 ft | 271 kts | 226° |
| 2026-04-30 09:32 | 34.63931 | 133.75652 | 8388 ft | 272 kts | 227° |
| 2026-04-30 09:32 | 34.62766 | 133.73850 | 9035 ft | 275 kts | 228° |
| 2026-04-30 09:33 | 34.61591 | 133.72028 | 9703 ft | 277 kts | 230° |
| 2026-04-30 09:33 | 34.60398 | 133.70175 | 10368 ft | 279 kts | 230° |
| 2026-04-30 09:33 | 34.59181 | 133.68295 | 10821 ft | 290 kts | 230° |
| 2026-04-30 09:33 | 34.57916 | 133.66348 | 11227 ft | 301 kts | 230° |
| 2026-04-30 09:34 | 34.56596 | 133.64311 | 11592 ft | 314 kts | 231° |
| 2026-04-30 09:34 | 34.55235 | 133.62166 | 11886 ft | 330 kts | 234° |
| 2026-04-30 09:34 | 34.54055 | 133.59706 | 12325 ft | 341 kts | 243° |
| 2026-04-30 09:34 | 34.53134 | 133.57079 | 13086 ft | 340 kts | 248° |
| 2026-04-30 09:35 | 34.52306 | 133.54402 | 13713 ft | 344 kts | 249° |
| 2026-04-30 09:35 | 34.51481 | 133.51686 | 14473 ft | 343 kts | 249° |
| 2026-04-30 09:35 | 34.50655 | 133.49030 | 15251 ft | 341 kts | 248° |
| 2026-04-30 09:35 | 34.49792 | 133.46320 | 15929 ft | 343 kts | 248° |
| 2026-04-30 09:36 | 34.48931 | 133.43671 | 16615 ft | 342 kts | 248° |
| 2026-04-30 09:36 | 34.48085 | 133.41003 | 17271 ft | 343 kts | 250° |
| 2026-04-30 09:36 | 34.47362 | 133.38220 | 17862 ft | 346 kts | 254° |
| 2026-04-30 09:36 | 34.46885 | 133.35390 | 18408 ft | 350 kts | 259° |
| 2026-04-30 09:37 | 34.46577 | 133.32466 | 18950 ft | 354 kts | 261° |
| 2026-04-30 09:37 | 34.46346 | 133.29472 | 19538 ft | 356 kts | 261° |
| 2026-04-30 09:37 | 34.46133 | 133.26508 | 20067 ft | 358 kts | 261° |
| 2026-04-30 09:37 | 34.45913 | 133.23492 | 20622 ft | 360 kts | 261° |
| 2026-04-30 09:38 | 34.45684 | 133.20487 | 21149 ft | 362 kts | 260° |
| 2026-04-30 09:38 | 34.45445 | 133.17464 | 21627 ft | 365 kts | 260° |
| 2026-04-30 09:38 | 34.45197 | 133.14395 | 22202 ft | 365 kts | 260° |
| 2026-04-30 09:38 | 34.44947 | 133.11328 | 22657 ft | 368 kts | 259° |
| 2026-04-30 09:39 | 34.44696 | 133.08267 | 23138 ft | 370 kts | 259° |
| 2026-04-30 09:39 | 34.44440 | 133.05174 | 23621 ft | 372 kts | 259° |
| 2026-04-30 09:39 | 34.44178 | 133.02031 | 24153 ft | 372 kts | 259° |
| 2026-04-30 09:39 | 34.43919 | 132.98930 | 24616 ft | 375 kts | 259° |
| 2026-04-30 09:40 | 34.43595 | 132.95801 | 25080 ft | 375 kts | 256° |
| 2026-04-30 09:40 | 34.43036 | 132.92709 | 25552 ft | 374 kts | 250° |
| 2026-04-30 09:40 | 34.42141 | 132.89774 | 25993 ft | 373 kts | 244° |
| 2026-04-30 09:40 | 34.41014 | 132.86957 | 26469 ft | 373 kts | 240° |
| 2026-04-30 09:41 | 34.39783 | 132.84193 | 26918 ft | 374 kts | 239° |
| 2026-04-30 09:41 | 34.38511 | 132.81438 | 27304 ft | 377 kts | 239° |
| 2026-04-30 09:41 | 34.37233 | 132.78685 | 27739 ft | 378 kts | 239° |
| 2026-04-30 09:41 | 34.35942 | 132.75899 | 27927 ft | 383 kts | 239° |
| 2026-04-30 09:42 | 34.34640 | 132.73074 | 27921 ft | 392 kts | 239° |
| 2026-04-30 09:42 | 34.33295 | 132.70145 | 27913 ft | 400 kts | 239° |
| 2026-04-30 09:42 | 34.31953 | 132.67210 | 27919 ft | 403 kts | 239° |
| 2026-04-30 09:42 | 34.30597 | 132.64233 | 27916 ft | 402 kts | 240° |
| 2026-04-30 09:43 | 34.29264 | 132.61305 | 27913 ft | 402 kts | 239° |
| 2026-04-30 09:43 | 34.27913 | 132.58337 | 27919 ft | 401 kts | 239° |
| 2026-04-30 09:43 | 34.26572 | 132.55394 | 27919 ft | 400 kts | 239° |
| 2026-04-30 09:43 | 34.25226 | 132.52438 | 27913 ft | 402 kts | 239° |
| 2026-04-30 09:44 | 34.23884 | 132.49497 | 27914 ft | 402 kts | 239° |
| 2026-04-30 09:44 | 34.22543 | 132.46561 | 27908 ft | 401 kts | 239° |
| 2026-04-30 09:44 | 34.21193 | 132.43610 | 27920 ft | 400 kts | 239° |
| 2026-04-30 09:44 | 34.19848 | 132.40674 | 27915 ft | 401 kts | 239° |
| 2026-04-30 09:45 | 34.18494 | 132.37720 | 27916 ft | 402 kts | 239° |
| 2026-04-30 09:45 | 34.17142 | 132.34770 | 27917 ft | 401 kts | 239° |
| 2026-04-30 09:45 | 34.15807 | 132.31860 | 27915 ft | 400 kts | 239° |
| 2026-04-30 09:45 | 34.14458 | 132.28925 | 27914 ft | 401 kts | 239° |
| 2026-04-30 09:46 | 34.13097 | 132.25963 | 27916 ft | 402 kts | 239° |
| 2026-04-30 09:46 | 34.11745 | 132.23025 | 27912 ft | 401 kts | 239° |
| 2026-04-30 09:46 | 34.10408 | 132.20114 | 27915 ft | 401 kts | 239° |
| 2026-04-30 09:46 | 34.09145 | 132.17079 | 27914 ft | 402 kts | 243° |
| 2026-04-30 09:47 | 34.08114 | 132.13937 | 27916 ft | 403 kts | 248° |
| 2026-04-30 09:47 | 34.07316 | 132.10709 | 27914 ft | 407 kts | 251° |
| 2026-04-30 09:47 | 34.06668 | 132.07411 | 27912 ft | 408 kts | 253° |
| 2026-04-30 09:47 | 34.06097 | 132.04077 | 27912 ft | 406 kts | 255° |
| 2026-04-30 09:48 | 34.05563 | 132.00738 | 27906 ft | 408 kts | 254° |
| 2026-04-30 09:48 | 34.05035 | 131.97392 | 27895 ft | 409 kts | 255° |
| 2026-04-30 09:48 | 34.04504 | 131.94029 | 27897 ft | 408 kts | 255° |
| 2026-04-30 09:48 | 34.03968 | 131.90669 | 27889 ft | 408 kts | 254° |
| 2026-04-30 09:49 | 34.03429 | 131.87328 | 27883 ft | 406 kts | 254° |
| 2026-04-30 09:49 | 34.02892 | 131.84018 | 27885 ft | 407 kts | 255° |
| 2026-04-30 09:49 | 34.02345 | 131.80669 | 27883 ft | 407 kts | 254° |
| 2026-04-30 09:49 | 34.01793 | 131.77318 | 27882 ft | 407 kts | 254° |
| 2026-04-30 09:50 | 34.01245 | 131.74005 | 27874 ft | 407 kts | 254° |
| 2026-04-30 09:50 | 34.00689 | 131.70662 | 27879 ft | 407 kts | 254° |
| 2026-04-30 09:50 | 34.00134 | 131.67335 | 27873 ft | 407 kts | 255° |
| 2026-04-30 09:50 | 33.99577 | 131.63988 | 27883 ft | 406 kts | 254° |
| 2026-04-30 09:51 | 33.99022 | 131.60658 | 27883 ft | 409 kts | 254° |
| 2026-04-30 09:51 | 33.98466 | 131.57332 | 27880 ft | 408 kts | 254° |
| 2026-04-30 09:51 | 33.97905 | 131.53979 | 27881 ft | 408 kts | 254° |
| 2026-04-30 09:51 | 33.97350 | 131.50665 | 27873 ft | 407 kts | 253° |
| 2026-04-30 09:52 | 33.96783 | 131.47313 | 27884 ft | 408 kts | 254° |
| 2026-04-30 09:52 | 33.96220 | 131.43977 | 27875 ft | 406 kts | 254° |
| 2026-04-30 09:52 | 33.95656 | 131.40651 | 27877 ft | 408 kts | 254° |
| 2026-04-30 09:52 | 33.95085 | 131.37295 | 27874 ft | 407 kts | 254° |
| 2026-04-30 09:53 | 33.94518 | 131.33977 | 27876 ft | 408 kts | 253° |
| 2026-04-30 09:53 | 33.93936 | 131.30632 | 27872 ft | 407 kts | 253° |
| 2026-04-30 09:53 | 33.93238 | 131.27364 | 27879 ft | 405 kts | 250° |
| 2026-04-30 09:53 | 33.92361 | 131.24132 | 27877 ft | 403 kts | 247° |
| 2026-04-30 09:54 | 33.91401 | 131.20973 | 27877 ft | 403 kts | 246° |
| 2026-04-30 09:54 | 33.90403 | 131.17830 | 27880 ft | 403 kts | 245° |
| 2026-04-30 09:54 | 33.89402 | 131.14717 | 27881 ft | 402 kts | 245° |
| 2026-04-30 09:54 | 33.88390 | 131.11562 | 27882 ft | 402 kts | 245° |
| 2026-04-30 09:55 | 33.87391 | 131.08426 | 27890 ft | 404 kts | 246° |
| 2026-04-30 09:55 | 33.86393 | 131.05272 | 27883 ft | 402 kts | 246° |
| 2026-04-30 09:55 | 33.85423 | 131.02187 | 27888 ft | 400 kts | 246° |
| 2026-04-30 09:55 | 33.84479 | 130.99016 | 27877 ft | 401 kts | 248° |
| 2026-04-30 09:56 | 33.83585 | 130.95850 | 27878 ft | 401 kts | 248° |
| 2026-04-30 09:56 | 33.82706 | 130.92659 | 27885 ft | 401 kts | 248° |
| 2026-04-30 09:56 | 33.81831 | 130.89471 | 27882 ft | 402 kts | 248° |
| 2026-04-30 09:56 | 33.80960 | 130.86305 | 27879 ft | 401 kts | 248° |
| 2026-04-30 09:57 | 33.80087 | 130.83145 | 27883 ft | 400 kts | 248° |
| 2026-04-30 09:57 | 33.79205 | 130.79976 | 27881 ft | 401 kts | 248° |
| 2026-04-30 09:57 | 33.78323 | 130.76817 | 27879 ft | 400 kts | 248° |
| 2026-04-30 09:57 | 33.77424 | 130.73612 | 27886 ft | 400 kts | 248° |
| 2026-04-30 09:58 | 33.76544 | 130.70479 | 27880 ft | 399 kts | 248° |
| 2026-04-30 09:58 | 33.75652 | 130.67313 | 27879 ft | 400 kts | 248° |
| 2026-04-30 09:58 | 33.74770 | 130.64186 | 27878 ft | 399 kts | 248° |
| 2026-04-30 09:58 | 33.73882 | 130.61046 | 27882 ft | 399 kts | 248° |
| 2026-04-30 09:59 | 33.72091 | 130.54729 | 27883 ft | 400 kts | 248° |
| 2026-04-30 09:59 | 33.70306 | 130.48447 | 27884 ft | 399 kts | 248° |
| 2026-04-30 10:00 | 33.68640 | 130.42096 | 27880 ft | 402 kts | 252° |
| 2026-04-30 10:00 | 33.68181 | 130.38800 | 27881 ft | 404 kts | 260° |
| 2026-04-30 10:01 | 33.68338 | 130.31975 | 27881 ft | 415 kts | 269° |
| 2026-04-30 10:01 | 33.68698 | 130.28514 | 27878 ft | 416 kts | 270° |
| 2026-04-30 10:01 | 33.69113 | 130.25119 | 27878 ft | 416 kts | 271° |
| 2026-04-30 10:02 | 33.69986 | 130.18269 | 27881 ft | 414 kts | 271° |
| 2026-04-30 10:02 | 33.70418 | 130.14825 | 27879 ft | 417 kts | 271° |
| 2026-04-30 10:02 | 33.70839 | 130.11392 | 27875 ft | 417 kts | 271° |
| 2026-04-30 10:02 | 33.71251 | 130.07982 | 27879 ft | 414 kts | 270° |
| 2026-04-30 10:03 | 33.71660 | 130.04541 | 27879 ft | 416 kts | 270° |
| 2026-04-30 10:03 | 33.72065 | 130.01096 | 27877 ft | 417 kts | 270° |
| 2026-04-30 10:03 | 33.72463 | 129.97694 | 27885 ft | 413 kts | 270° |
| 2026-04-30 10:03 | 33.72863 | 129.94252 | 27880 ft | 414 kts | 270° |
| 2026-04-30 10:04 | 33.73259 | 129.90819 | 27878 ft | 416 kts | 270° |
| 2026-04-30 10:04 | 33.73650 | 129.87393 | 27889 ft | 416 kts | 270° |
| 2026-04-30 10:04 | 33.74040 | 129.83958 | 27890 ft | 413 kts | 270° |
| 2026-04-30 10:04 | 33.74343 | 129.80539 | 27887 ft | 412 kts | 267° |
| 2026-04-30 10:05 | 33.74447 | 129.77151 | 27887 ft | 409 kts | 263° |
| 2026-04-30 10:05 | 33.74317 | 129.73747 | 27878 ft | 406 kts | 260° |
| 2026-04-30 10:05 | 33.74045 | 129.70407 | 27876 ft | 403 kts | 258° |
| 2026-04-30 10:05 | 33.73698 | 129.67030 | 27879 ft | 404 kts | 257° |
| 2026-04-30 10:06 | 33.73332 | 129.63734 | 27874 ft | 404 kts | 257° |
| 2026-04-30 10:06 | 33.72957 | 129.60399 | 27880 ft | 402 kts | 257° |
| 2026-04-30 10:06 | 33.72579 | 129.57044 | 27887 ft | 403 kts | 257° |
| 2026-04-30 10:06 | 33.72211 | 129.53743 | 27883 ft | 403 kts | 257° |
| 2026-04-30 10:07 | 33.71842 | 129.50411 | 27880 ft | 402 kts | 257° |
| 2026-04-30 10:07 | 33.71479 | 129.47096 | 27895 ft | 402 kts | 257° |
| 2026-04-30 10:07 | 33.71111 | 129.43733 | 27885 ft | 404 kts | 257° |
| 2026-04-30 10:07 | 33.70750 | 129.40424 | 27889 ft | 404 kts | 257° |
| 2026-04-30 10:08 | 33.70386 | 129.37094 | 27891 ft | 403 kts | 257° |
| 2026-04-30 10:08 | 33.70018 | 129.33730 | 27897 ft | 403 kts | 257° |
| 2026-04-30 10:08 | 33.69655 | 129.30420 | 27897 ft | 404 kts | 257° |
| 2026-04-30 10:08 | 33.69289 | 129.27089 | 27895 ft | 402 kts | 257° |
| 2026-04-30 10:09 | 33.68923 | 129.23761 | 27897 ft | 402 kts | 256° |
| 2026-04-30 10:09 | 33.68551 | 129.20403 | 27900 ft | 403 kts | 256° |
| 2026-04-30 10:09 | 33.68184 | 129.17099 | 27898 ft | 401 kts | 257° |
| 2026-04-30 10:09 | 33.67818 | 129.13796 | 27897 ft | 401 kts | 257° |
| 2026-04-30 10:10 | 33.67448 | 129.10461 | 27898 ft | 403 kts | 257° |
| 2026-04-30 10:10 | 33.67079 | 129.07150 | 27891 ft | 402 kts | 256° |
| 2026-04-30 10:10 | 33.66707 | 129.03821 | 27901 ft | 404 kts | 257° |
| 2026-04-30 10:10 | 33.66336 | 129.00510 | 27895 ft | 403 kts | 257° |
| 2026-04-30 10:11 | 33.65961 | 128.97185 | 27900 ft | 402 kts | 257° |
| 2026-04-30 10:11 | 33.65588 | 128.93869 | 27911 ft | 403 kts | 256° |
| 2026-04-30 10:11 | 33.65211 | 128.90546 | 27925 ft | 405 kts | 257° |
| 2026-04-30 10:11 | 33.64834 | 128.87213 | 27917 ft | 402 kts | 257° |
| 2026-04-30 10:12 | 33.64460 | 128.83897 | 27918 ft | 399 kts | 257° |
| 2026-04-30 10:12 | 33.64085 | 128.80589 | 27930 ft | 402 kts | 257° |
| 2026-04-30 10:12 | 33.63711 | 128.77298 | 27915 ft | 404 kts | 256° |
| 2026-04-30 10:12 | 33.63331 | 128.73970 | 27921 ft | 402 kts | 256° |
| 2026-04-30 10:13 | 33.62949 | 128.70627 | 27927 ft | 402 kts | 256° |
| 2026-04-30 10:13 | 33.62571 | 128.67333 | 27917 ft | 400 kts | 256° |
| 2026-04-30 10:13 | 33.62190 | 128.64027 | 27922 ft | 400 kts | 257° |
| 2026-04-30 10:13 | 33.61809 | 128.60733 | 27930 ft | 401 kts | 256° |
| 2026-04-30 10:14 | 33.61425 | 128.57422 | 27915 ft | 403 kts | 256° |
| 2026-04-30 10:14 | 33.61043 | 128.54132 | 27909 ft | 401 kts | 257° |
| 2026-04-30 10:14 | 33.60273 | 128.47505 | 27919 ft | 402 kts | 256° |
| 2026-04-30 10:15 | 33.59889 | 128.44229 | 27916 ft | 401 kts | 256° |
| 2026-04-30 10:15 | 33.59502 | 128.40921 | 27924 ft | 400 kts | 256° |
| 2026-04-30 10:15 | 33.59115 | 128.37610 | 27917 ft | 402 kts | 256° |
| 2026-04-30 10:15 | 33.58730 | 128.34328 | 27917 ft | 399 kts | 256° |
| 2026-04-30 10:16 | 33.58343 | 128.31020 | 27922 ft | 398 kts | 256° |
| 2026-04-30 10:16 | 33.57971 | 128.27753 | 27914 ft | 391 kts | 257° |
| 2026-04-30 10:16 | 33.57627 | 128.24596 | 27919 ft | 375 kts | 257° |
| 2026-04-30 10:17 | 33.56978 | 128.18604 | 27732 ft | 366 kts | 255° |
| 2026-04-30 10:17 | 33.56288 | 128.12518 | 26830 ft | 375 kts | 256° |
| 2026-04-30 10:17 | 33.55934 | 128.09418 | 26301 ft | 377 kts | 256° |
| 2026-04-30 10:18 | 33.55586 | 128.06335 | 25761 ft | 373 kts | 256° |
| 2026-04-30 10:18 | 33.55245 | 128.03290 | 25232 ft | 368 kts | 257° |
| 2026-04-30 10:18 | 33.54911 | 128.00295 | 24693 ft | 364 kts | 257° |
| 2026-04-30 10:19 | 33.54236 | 127.94323 | 23654 ft | 365 kts | 257° |
| 2026-04-30 10:19 | 33.53893 | 127.91322 | 23127 ft | 366 kts | 257° |
| 2026-04-30 10:19 | 33.53551 | 127.88323 | 22602 ft | 362 kts | 257° |
| 2026-04-30 10:19 | 33.53211 | 127.85342 | 22069 ft | 359 kts | 257° |
| 2026-04-30 10:20 | 33.52879 | 127.82412 | 21534 ft | 356 kts | 257° |
| 2026-04-30 10:20 | 33.52216 | 127.76629 | 20496 ft | 353 kts | 257° |
| 2026-04-30 10:20 | 33.51873 | 127.73698 | 19959 ft | 360 kts | 257° |
| 2026-04-30 10:21 | 33.51522 | 127.70714 | 19416 ft | 363 kts | 258° |
| 2026-04-30 10:21 | 33.51172 | 127.67715 | 18864 ft | 360 kts | 258° |
| 2026-04-30 10:21 | 33.50832 | 127.64783 | 18320 ft | 357 kts | 258° |
| 2026-04-30 10:21 | 33.50498 | 127.61877 | 17764 ft | 355 kts | 258° |
| 2026-04-30 10:22 | 33.50162 | 127.58961 | 17223 ft | 352 kts | 258° |
| 2026-04-30 10:22 | 33.49827 | 127.56070 | 16665 ft | 350 kts | 258° |
| 2026-04-30 10:22 | 33.49495 | 127.53215 | 16123 ft | 347 kts | 258° |
| 2026-04-30 10:22 | 33.49165 | 127.50383 | 15589 ft | 345 kts | 259° |
| 2026-04-30 10:23 | 33.48831 | 127.47540 | 15041 ft | 346 kts | 259° |
| 2026-04-30 10:23 | 33.48494 | 127.44662 | 14486 ft | 349 kts | 259° |
| 2026-04-30 10:23 | 33.48159 | 127.41815 | 13938 ft | 347 kts | 259° |
| 2026-04-30 10:23 | 33.47821 | 127.38945 | 13379 ft | 344 kts | 260° |
| 2026-04-30 10:24 | 33.47489 | 127.36138 | 12838 ft | 342 kts | 260° |
| 2026-04-30 10:24 | 33.47325 | 127.33337 | 12325 ft | 341 kts | 269° |
| 2026-04-30 10:24 | 33.47737 | 127.30540 | 11822 ft | 342 kts | 284° |
| 2026-04-30 10:24 | 33.48546 | 127.27869 | 11263 ft | 343 kts | 288° |
| 2026-04-30 10:25 | 33.49458 | 127.25240 | 10795 ft | 339 kts | 290° |
| 2026-04-30 10:25 | 33.50361 | 127.22668 | 10556 ft | 328 kts | 290° |
| 2026-04-30 10:25 | 33.51199 | 127.20198 | 10447 ft | 314 kts | 289° |
| 2026-04-30 10:25 | 33.51983 | 127.17812 | 10322 ft | 302 kts | 288° |
| 2026-04-30 10:26 | 33.52717 | 127.15510 | 10194 ft | 290 kts | 288° |
| 2026-04-30 10:26 | 33.53407 | 127.13312 | 10073 ft | 279 kts | 287° |
| 2026-04-30 10:26 | 33.54079 | 127.11159 | 9808 ft | 275 kts | 288° |
| 2026-04-30 10:26 | 33.54749 | 127.09003 | 9406 ft | 275 kts | 288° |
| 2026-04-30 10:27 | 33.55412 | 127.06883 | 9046 ft | 274 kts | 289° |
| 2026-04-30 10:27 | 33.56088 | 127.04729 | 8691 ft | 273 kts | 289° |
| 2026-04-30 10:27 | 33.56750 | 127.02615 | 8336 ft | 271 kts | 289° |
| 2026-04-30 10:27 | 33.57407 | 127.00515 | 7990 ft | 270 kts | 289° |
| 2026-04-30 10:28 | 33.58060 | 126.98430 | 7647 ft | 268 kts | 290° |
| 2026-04-30 10:28 | 33.58713 | 126.96341 | 7310 ft | 266 kts | 290° |
| 2026-04-30 10:28 | 33.59362 | 126.94270 | 6965 ft | 265 kts | 290° |
| 2026-04-30 10:28 | 33.60005 | 126.92214 | 6638 ft | 263 kts | 291° |
| 2026-04-30 10:29 | 33.60644 | 126.90173 | 6298 ft | 262 kts | 291° |
| 2026-04-30 10:29 | 33.61272 | 126.88158 | 5977 ft | 260 kts | 291° |
| 2026-04-30 10:29 | 33.61913 | 126.86115 | 5638 ft | 258 kts | 291° |
| 2026-04-30 10:29 | 33.62534 | 126.84120 | 5313 ft | 256 kts | 291° |
| 2026-04-30 10:30 | 33.63139 | 126.82143 | 5022 ft | 253 kts | 291° |
| 2026-04-30 10:30 | 33.63739 | 126.80184 | 4900 ft | 243 kts | 292° |
| 2026-04-30 10:30 | 33.64308 | 126.78342 | 4831 ft | 232 kts | 292° |
| 2026-04-30 10:30 | 33.64743 | 126.76502 | 4755 ft | 226 kts | 279° |
| 2026-04-30 10:31 | 33.64570 | 126.74635 | 4584 ft | 232 kts | 250° |
| 2026-04-30 10:31 | 33.63670 | 126.73024 | 4294 ft | 237 kts | 232° |
| 2026-04-30 10:31 | 33.62600 | 126.71501 | 3981 ft | 235 kts | 238° |
| 2026-04-30 10:31 | 33.61753 | 126.69875 | 3714 ft | 230 kts | 245° |
| 2026-04-30 10:32 | 33.60986 | 126.68221 | 3519 ft | 222 kts | 244° |
| 2026-04-30 10:32 | 33.60204 | 126.66673 | 3366 ft | 212 kts | 243° |
| 2026-04-30 10:32 | 33.59426 | 126.65190 | 3088 ft | 210 kts | 242° |
| 2026-04-30 10:32 | 33.58664 | 126.63709 | 2796 ft | 208 kts | 243° |
| 2026-04-30 10:33 | 33.57912 | 126.62233 | 2510 ft | 206 kts | 243° |
| 2026-04-30 10:33 | 33.57167 | 126.60780 | 2225 ft | 205 kts | 243° |
| 2026-04-30 10:33 | 33.56416 | 126.59324 | 1940 ft | 203 kts | 243° |
| 2026-04-30 10:33 | 33.55688 | 126.57910 | 1666 ft | 201 kts | 243° |
| 2026-04-30 10:34 | 33.54958 | 126.56486 | 1395 ft | 199 kts | 242° |
| 2026-04-30 10:34 | 33.54250 | 126.55117 | 1130 ft | 187 kts | 242° |
| 2026-04-30 10:34 | 33.53592 | 126.53838 | 890 ft | 171 kts | 241° |
| 2026-04-30 10:34 | 33.52998 | 126.52680 | 657 ft | 158 kts | 241° |
| 2026-04-30 10:35 | 33.52434 | 126.51590 | 457 ft | 150 kts | 240° |
| 2026-04-30 10:35 | 33.51868 | 126.50525 | 288 ft | 153 kts | 241° |
| 2026-04-30 10:35 | 33.51326 | 126.49450 | 92 ft | 147 kts | 239° |
| 2026-04-30 10:35 | 33.50853 | 126.48529 | 67 ft | 106 kts | 238° |
| 2026-04-30 10:36 | 33.50550 | 126.47937 | 80 ft | 63 kts | 239° |
| 2026-04-30 10:36 | 33.50374 | 126.47624 | 84 ft | 38 kts | 229° |
| 2026-04-30 10:36 | 33.50208 | 126.47499 | 88 ft | 17 kts | 171° |
| 2026-04-30 10:36 | 33.50178 | 126.47582 | 93 ft | 10 kts | 70° |
| 2026-04-30 10:37 | 33.50222 | 126.47676 | 94 ft | 16 kts | 58° |
| 2026-04-30 10:37 | 33.50285 | 126.47795 | 92 ft | 17 kts | 58° |
| 2026-04-30 10:37 | 33.50353 | 126.47932 | 91 ft | 21 kts | 59° |
| 2026-04-30 10:37 | 33.50441 | 126.48099 | 87 ft | 26 kts | 57° |
| 2026-04-30 10:38 | 33.50548 | 126.48303 | 81 ft | 30 kts | 59° |
| 2026-04-30 10:38 | 33.50659 | 126.48524 | 78 ft | 30 kts | 60° |
| 2026-04-30 10:38 | 33.50769 | 126.48743 | 74 ft | 29 kts | 57° |
| 2026-04-30 10:38 | 33.50769 | 126.48863 | 77 ft | 13 kts | 144° |
| 2026-04-30 10:39 | 33.50706 | 126.48919 | 80 ft | 8 kts | 124° |
| 2026-04-30 10:39 | 33.50715 | 126.48981 | 81 ft | 8 kts | 62° |
| 2026-04-30 10:39 | 33.50756 | 126.49061 | 81 ft | 13 kts | 56° |
| 2026-04-30 10:39 | 33.50816 | 126.49174 | 81 ft | 16 kts | 58° |
| 2026-04-30 10:40 | 33.50870 | 126.49277 | 84 ft | 12 kts | 60° |
| 2026-04-30 10:40 | 33.50887 | 126.49366 | 85 ft | 10 kts | 107° |
| 2026-04-30 10:40 | 33.50863 | 126.49429 | 88 ft | 6 kts | 136° |
| 2026-04-30 10:40 | 33.50832 | 126.49439 | 89 ft | 2 kts | 175° |
| 2026-04-30 10:41 | 33.50818 | 126.49440 | 90 ft | 2 kts | 179° |
| 2026-04-30 10:41 | 33.50811 | 126.49440 | 90 ft | 0 kts | 179° |
| 2026-04-30 10:41 | 33.50810 | 126.49440 | 90 ft | 0 kts | 179° |
| 2026-04-30 10:41 | 33.50807 | 126.49440 | 90 ft | 0 kts | 179° |